Time;durP1;ratioP1;P1;durP2;ratioP2;P2;SDS_P1;SDS_P2;PMS_P1;PMS_P2;Temp;Humidity;BMP_temperature;BMP_pressure;BME280_temperature;BME280_humidity;BME280_pressure;Samples;Min_cycle;Max_cycle;Signal;HPM_P1;HPM_P2
2023/04/08 00:00:53;;;;;;;7.82;4.40;;;7.60;65.30;;;;;;5049856;28;20052;-72
2023/04/08 00:03:20;;;;;;;9.63;5.10;;;7.50;65.20;;;;;;5066155;28;20491;-71
2023/04/08 00:05:47;;;;;;;10.40;5.20;;;7.50;65.40;;;;;;5050373;28;20488;-71
2023/04/08 00:08:14;;;;;;;8.75;4.70;;;7.50;65.30;;;;;;5062430;28;20077;-72
2023/04/08 00:10:42;;;;;;;8.48;4.70;;;7.40;65.70;;;;;;5066295;28;20041;-72
2023/04/08 00:13:10;;;;;;;7.45;4.30;;;7.40;65.80;;;;;;5066541;28;20133;-72
2023/04/08 00:15:37;;;;;;;9.10;4.30;;;7.40;65.50;;;;;;5049841;28;20045;-71
2023/04/08 00:18:04;;;;;;;8.82;4.38;;;7.30;65.80;;;;;;5066309;28;20134;-71
2023/04/08 00:20:31;;;;;;;8.50;4.65;;;7.20;65.80;;;;;;5065994;28;20099;-72
2023/04/08 00:22:58;;;;;;;9.65;4.35;;;7.20;65.80;;;;;;5055063;28;20045;-71
2023/04/08 00:25:25;;;;;;;8.35;4.43;;;7.20;65.90;;;;;;5046531;28;20140;-72
2023/04/08 00:27:53;;;;;;;8.47;4.80;;;7.10;66.00;;;;;;5055730;28;20077;-71
2023/04/08 00:30:20;;;;;;;8.82;4.60;;;7.10;66.20;;;;;;5065991;28;20528;-72
2023/04/08 00:32:47;;;;;;;9.50;4.57;;;7.00;66.20;;;;;;5067652;28;20545;-72
2023/04/08 00:35:14;;;;;;;8.60;4.90;;;7.00;66.30;;;;;;5049436;28;20108;-71
2023/04/08 00:37:41;;;;;;;8.00;4.15;;;7.00;66.30;;;;;;5053165;28;20041;-72
2023/04/08 00:40:09;;;;;;;8.97;4.73;;;7.00;66.20;;;;;;5045998;28;20050;-72
2023/04/08 00:42:36;;;;;;;10.10;4.80;;;7.00;66.40;;;;;;5033013;28;20462;-71
2023/04/08 00:45:05;;;;;;;8.52;4.80;;;6.90;66.50;;;;;;5054130;28;20049;-71
2023/04/08 00:47:32;;;;;;;9.13;4.70;;;6.90;66.70;;;;;;5069528;28;20056;-72
2023/04/08 00:49:59;;;;;;;9.90;4.47;;;6.90;66.80;;;;;;5052359;28;20643;-71
2023/04/08 00:52:26;;;;;;;10.00;4.70;;;6.90;66.90;;;;;;5049699;28;20574;-71
2023/04/08 00:54:53;;;;;;;9.65;4.75;;;6.90;67.00;;;;;;5058999;28;20059;-71
2023/04/08 00:57:20;;;;;;;10.65;5.07;;;6.90;67.00;;;;;;5042341;28;20041;-72
2023/04/08 00:59:47;;;;;;;8.98;4.55;;;6.90;67.10;;;;;;5043878;28;20510;-71
2023/04/08 01:02:23;;;;;;;9.20;4.63;;;6.90;67.10;;;;;;5053327;28;20048;-71
2023/04/08 01:04:56;;;;;;;8.90;4.57;;;6.90;67.00;;;;;;5033766;28;20088;-71
2023/04/08 01:07:27;;;;;;;8.57;4.75;;;6.90;66.90;;;;;;5064706;28;20049;-71
2023/04/08 01:09:57;;;;;;;9.48;5.00;;;6.80;67.00;;;;;;5068954;28;20041;-71
2023/04/08 01:12:27;;;;;;;8.27;4.90;;;6.70;67.00;;;;;;5069370;28;20049;-71
2023/04/08 01:15:00;;;;;;;9.02;5.35;;;6.70;67.20;;;;;;5052624;28;20049;-70
2023/04/08 01:17:30;;;;;;;9.13;4.60;;;6.60;67.40;;;;;;5043146;28;20038;-71
2023/04/08 01:20:00;;;;;;;9.80;4.75;;;6.60;67.40;;;;;;5050156;28;20562;-71
2023/04/08 01:22:34;;;;;;;9.73;5.05;;;6.50;67.40;;;;;;5061793;28;20049;-71
2023/04/08 01:25:06;;;;;;;9.13;4.90;;;6.50;67.60;;;;;;5039261;28;21088;-71
2023/04/08 01:27:36;;;;;;;9.13;4.80;;;6.50;67.80;;;;;;5050842;28;20525;-71
2023/04/08 01:30:06;;;;;;;11.17;4.80;;;6.50;67.80;;;;;;5050837;28;20057;-71
2023/04/08 01:32:35;;;;;;;9.75;4.82;;;6.50;68.00;;;;;;5048479;28;20507;-71
2023/04/08 01:35:02;;;;;;;8.05;4.57;;;6.50;68.00;;;;;;5029829;28;20174;-71
2023/04/08 01:37:30;;;;;;;10.40;4.80;;;6.50;68.10;;;;;;5068867;28;20055;-71
2023/04/08 01:40:00;;;;;;;7.78;4.38;;;6.50;68.20;;;;;;5051197;28;20076;-71
2023/04/08 01:42:28;;;;;;;8.47;4.80;;;6.50;68.20;;;;;;5051571;28;20154;-71
2023/04/08 01:45:00;;;;;;;10.25;4.78;;;6.50;68.10;;;;;;5051588;28;20099;-71
2023/04/08 01:47:29;;;;;;;9.35;4.93;;;6.50;68.00;;;;;;5051076;28;20578;-71
2023/04/08 01:49:57;;;;;;;9.52;4.88;;;6.50;68.10;;;;;;5068471;28;20059;-71
2023/04/08 01:52:26;;;;;;;9.00;4.65;;;6.50;68.00;;;;;;5033264;28;20045;-71
2023/04/08 01:54:53;;;;;;;10.20;5.10;;;6.50;68.10;;;;;;5050209;28;20143;-71
2023/04/08 01:57:24;;;;;;;10.35;5.40;;;6.50;68.10;;;;;;5065408;28;20099;-71
2023/04/08 01:59:53;;;;;;;9.85;5.13;;;6.50;68.10;;;;;;5051106;28;20052;-70
2023/04/08 02:02:25;;;;;;;11.20;5.20;;;6.40;68.20;;;;;;5068425;28;20055;-72
2023/04/08 02:04:53;;;;;;;12.88;5.13;;;6.40;68.30;;;;;;5069859;28;20586;-70
2023/04/08 02:07:20;;;;;;;10.30;4.93;;;6.40;68.30;;;;;;5069481;28;20134;-71
2023/04/08 02:09:47;;;;;;;12.70;5.25;;;6.40;68.00;;;;;;5035448;28;20042;-70
2023/04/08 02:12:14;;;;;;;8.20;4.70;;;6.30;68.00;;;;;;5049556;28;20132;-71
2023/04/08 02:14:41;;;;;;;10.20;5.35;;;6.20;68.00;;;;;;5045292;28;20049;-71
2023/04/08 02:17:12;;;;;;;9.98;4.70;;;6.10;68.10;;;;;;5068611;28;20534;-71
2023/04/08 02:19:47;;;;;;;9.73;5.20;;;6.00;68.20;;;;;;5050697;28;20052;-71
2023/04/08 02:22:20;;;;;;;11.35;5.90;;;5.90;68.30;;;;;;5051494;28;20049;-71
2023/04/08 02:24:48;;;;;;;11.18;5.78;;;5.90;68.30;;;;;;5050864;28;20131;-71
2023/04/08 02:27:16;;;;;;;10.95;5.85;;;5.90;68.60;;;;;;5029733;28;20049;-71
2023/04/08 02:29:45;;;;;;;12.88;5.88;;;5.90;68.80;;;;;;5047586;28;20054;-70
2023/04/08 02:32:13;;;;;;;13.07;6.43;;;5.80;68.90;;;;;;5060613;28;20554;-71
2023/04/08 02:34:43;;;;;;;11.85;6.20;;;5.80;69.00;;;;;;5051102;28;20052;-71
2023/04/08 02:37:10;;;;;;;12.73;6.05;;;5.80;69.20;;;;;;5050646;28;20527;-71
2023/04/08 02:39:37;;;;;;;13.48;6.25;;;5.80;69.30;;;;;;5067095;28;20053;-71
2023/04/08 02:42:05;;;;;;;10.75;6.25;;;5.80;69.40;;;;;;5066271;28;20504;-71
2023/04/08 02:44:35;;;;;;;12.17;6.10;;;5.80;69.50;;;;;;5041464;28;20049;-71
2023/04/08 02:47:03;;;;;;;12.55;6.20;;;5.80;69.40;;;;;;5056832;28;20128;-71
2023/04/08 02:49:30;;;;;;;11.70;6.72;;;5.80;69.40;;;;;;5061364;28;20049;-71
2023/04/08 02:51:59;;;;;;;14.85;7.30;;;5.80;69.50;;;;;;5049715;28;20048;-71
2023/04/08 02:54:26;;;;;;;12.18;6.38;;;5.80;69.50;;;;;;5044505;28;20052;-71
2023/04/08 02:56:55;;;;;;;10.87;6.57;;;5.80;69.50;;;;;;5049206;28;20100;-71
2023/04/08 02:59:22;;;;;;;12.15;6.85;;;5.80;69.70;;;;;;5051556;28;20447;-71
2023/04/08 03:01:49;;;;;;;13.05;6.25;;;5.80;69.60;;;;;;5061790;28;20510;-71
2023/04/08 03:04:16;;;;;;;12.40;6.25;;;5.80;69.50;;;;;;5047256;28;20073;-71
2023/04/08 03:06:43;;;;;;;12.07;6.60;;;5.70;69.40;;;;;;5063272;28;20215;-70
2023/04/08 03:09:11;;;;;;;11.80;6.30;;;5.70;69.50;;;;;;5046900;28;20042;-70
2023/04/08 03:11:38;;;;;;;13.25;6.70;;;5.60;69.50;;;;;;5051963;28;20048;-71
2023/04/08 03:14:05;;;;;;;13.50;7.07;;;5.60;69.60;;;;;;5068541;28;20067;-70
2023/04/08 03:16:32;;;;;;;12.80;7.20;;;5.50;69.70;;;;;;5068454;28;20049;-71
2023/04/08 03:18:59;;;;;;;13.23;6.80;;;5.50;69.70;;;;;;5066294;28;20137;-71
2023/04/08 03:21:25;;;;;;;12.90;6.70;;;5.40;69.80;;;;;;5047318;28;20496;-71
2023/04/08 03:23:52;;;;;;;13.05;6.88;;;5.40;69.90;;;;;;5064847;28;20056;-71
2023/04/08 03:26:21;;;;;;;12.43;6.50;;;5.40;70.00;;;;;;5068134;28;20541;-71
2023/04/08 03:28:47;;;;;;;13.82;7.03;;;5.30;70.10;;;;;;5066830;28;20636;-70
2023/04/08 03:31:15;;;;;;;14.05;7.32;;;5.30;70.20;;;;;;5067604;28;20168;-70
2023/04/08 03:33:41;;;;;;;11.57;6.60;;;5.30;70.20;;;;;;5059545;28;20064;-70
2023/04/08 03:36:08;;;;;;;13.65;7.18;;;5.30;70.20;;;;;;5066388;28;20834;-71
2023/04/08 03:38:35;;;;;;;14.02;7.47;;;5.30;70.40;;;;;;5050175;28;20133;-71
2023/04/08 03:41:02;;;;;;;12.82;6.97;;;5.30;70.40;;;;;;5046420;28;20049;-71
2023/04/08 03:43:31;;;;;;;14.90;7.72;;;5.30;70.50;;;;;;5061302;28;20115;-70
2023/04/08 03:45:58;;;;;;;14.30;7.00;;;5.20;70.50;;;;;;5066537;28;20049;-71
2023/04/08 03:48:25;;;;;;;14.18;7.22;;;5.30;70.70;;;;;;5066345;28;20057;-71
2023/04/08 03:50:52;;;;;;;11.63;7.32;;;5.20;70.70;;;;;;5066309;28;20051;-71
2023/04/08 03:53:19;;;;;;;14.65;8.10;;;5.20;70.80;;;;;;5066651;28;20080;-71
2023/04/08 03:55:46;;;;;;;15.95;8.00;;;5.30;71.00;;;;;;5056634;28;20146;-71
2023/04/08 03:58:12;;;;;;;15.40;8.23;;;5.30;71.00;;;;;;5047795;28;20595;-70
2023/04/08 04:00:41;;;;;;;14.68;7.75;;;5.20;71.00;;;;;;5056849;28;20061;-70
2023/04/08 04:03:09;;;;;;;14.98;7.45;;;5.20;71.00;;;;;;5066281;28;20132;-71
2023/04/08 04:05:36;;;;;;;13.85;7.50;;;5.10;71.00;;;;;;5067446;28;20049;-70
2023/04/08 04:08:03;;;;;;;14.23;7.18;;;5.10;71.10;;;;;;5067288;28;20065;-71
2023/04/08 04:10:31;;;;;;;15.10;7.93;;;5.10;71.20;;;;;;5069420;28;20049;-71
2023/04/08 04:12:57;;;;;;;15.23;8.13;;;5.10;71.20;;;;;;5061026;28;20112;-71
2023/04/08 04:15:24;;;;;;;15.10;8.15;;;5.10;71.20;;;;;;5056167;28;20069;-70
2023/04/08 04:17:53;;;;;;;14.15;7.47;;;5.10;71.20;;;;;;5071156;28;20368;-70
2023/04/08 04:20:20;;;;;;;15.25;8.30;;;5.10;71.20;;;;;;5070782;28;20166;-71
2023/04/08 04:22:47;;;;;;;16.50;8.20;;;5.10;71.30;;;;;;5068586;28;20045;-71
2023/04/08 04:25:14;;;;;;;15.77;7.97;;;5.10;71.40;;;;;;5067534;28;20065;-71
2023/04/08 04:27:41;;;;;;;15.70;7.90;;;5.10;71.50;;;;;;5052310;28;20507;-71
2023/04/08 04:30:09;;;;;;;15.10;8.02;;;5.10;71.40;;;;;;5046252;28;20768;-70
2023/04/08 04:32:36;;;;;;;16.65;8.50;;;5.10;71.50;;;;;;5048671;28;20063;-70
2023/04/08 04:35:05;;;;;;;15.10;7.67;;;5.00;71.40;;;;;;5031693;28;20038;-71
2023/04/08 04:37:32;;;;;;;16.92;7.97;;;5.00;71.50;;;;;;5069511;28;20544;-71
2023/04/08 04:39:59;;;;;;;15.23;8.15;;;5.00;71.60;;;;;;5069076;28;20052;-70
2023/04/08 04:42:26;;;;;;;16.15;8.05;;;5.00;71.70;;;;;;5065448;28;20430;-70
2023/04/08 04:44:53;;;;;;;17.80;9.10;;;4.90;71.80;;;;;;5062504;28;20056;-71
2023/04/08 04:47:20;;;;;;;15.63;8.20;;;4.90;71.90;;;;;;5064285;28;20056;-70
2023/04/08 04:49:47;;;;;;;15.52;8.48;;;4.90;72.00;;;;;;5064775;28;20048;-70
2023/04/08 04:52:16;;;;;;;15.35;8.20;;;4.90;71.90;;;;;;5069057;28;20789;-70
2023/04/08 04:54:43;;;;;;;16.23;8.55;;;4.90;72.10;;;;;;5060906;28;20536;-70
2023/04/08 04:57:10;;;;;;;16.55;8.30;;;4.90;72.10;;;;;;5066449;28;20526;-70
2023/04/08 04:59:37;;;;;;;16.37;8.07;;;4.80;72.20;;;;;;5064470;28;20064;-70
2023/04/08 05:02:04;;;;;;;18.98;8.82;;;4.70;72.30;;;;;;5066186;28;20629;-71
2023/04/08 05:04:31;;;;;;;16.35;8.40;;;4.80;72.40;;;;;;5062613;28;20070;-70
2023/04/08 05:06:59;;;;;;;15.85;8.52;;;4.80;72.50;;;;;;5047813;28;20498;-71
2023/04/08 05:09:29;;;;;;;16.20;8.82;;;4.80;72.50;;;;;;5050135;28;20069;-71
2023/04/08 05:11:56;;;;;;;16.30;9.07;;;4.80;72.60;;;;;;5062417;28;20115;-70
2023/04/08 05:14:23;;;;;;;15.75;7.95;;;4.80;72.70;;;;;;5068965;28;20042;-70
2023/04/08 05:16:51;;;;;;;16.10;7.95;;;4.80;72.70;;;;;;5068799;28;21152;-70
2023/04/08 05:19:18;;;;;;;14.63;7.68;;;4.90;72.70;;;;;;5070302;28;20067;-71
2023/04/08 05:21:45;;;;;;;14.02;7.72;;;4.90;72.80;;;;;;5067819;28;20188;-70
2023/04/08 05:24:12;;;;;;;14.93;8.03;;;4.90;72.80;;;;;;5067562;28;20136;-70
2023/04/08 05:26:40;;;;;;;16.40;8.25;;;4.90;72.80;;;;;;5068625;28;20076;-70
2023/04/08 05:29:08;;;;;;;17.48;8.43;;;4.90;72.90;;;;;;5069433;28;20061;-71
2023/04/08 05:31:35;;;;;;;17.38;8.70;;;4.90;72.90;;;;;;5070342;28;20136;-70
2023/04/08 05:34:02;;;;;;;16.25;8.52;;;4.90;72.90;;;;;;5068686;28;20084;-70
2023/04/08 05:36:30;;;;;;;15.50;7.80;;;4.90;72.90;;;;;;5068919;28;20045;-71
2023/04/08 05:38:57;;;;;;;18.30;8.88;;;4.90;73.00;;;;;;5068451;28;20056;-71
2023/04/08 05:41:24;;;;;;;18.17;8.68;;;5.00;73.10;;;;;;5065760;28;20587;-71
2023/04/08 05:43:53;;;;;;;16.52;8.45;;;5.00;73.20;;;;;;5065253;28;20123;-70
2023/04/08 05:46:20;;;;;;;17.55;8.80;;;5.00;73.40;;;;;;5046473;28;20053;-71
2023/04/08 05:48:47;;;;;;;17.03;8.17;;;5.00;73.50;;;;;;5067312;28;20132;-71
2023/04/08 05:51:14;;;;;;;17.90;9.32;;;5.00;73.70;;;;;;5066291;28;20837;-71
2023/04/08 05:53:41;;;;;;;17.77;9.27;;;5.00;73.80;;;;;;5049563;28;20586;-71
2023/04/08 05:56:09;;;;;;;21.67;9.65;;;5.00;74.00;;;;;;5062883;28;20553;-71
2023/04/08 05:58:36;;;;;;;20.15;9.55;;;5.00;74.30;;;;;;5066639;28;20095;-71
2023/04/08 06:01:06;;;;;;;19.57;10.13;;;5.00;74.60;;;;;;5059759;28;20052;-71
2023/04/08 06:03:33;;;;;;;21.27;10.65;;;5.10;74.80;;;;;;5066050;28;20045;-71
2023/04/08 06:06:00;;;;;;;21.25;10.07;;;5.10;74.90;;;;;;5065948;28;20642;-71
2023/04/08 06:08:27;;;;;;;19.17;8.85;;;5.10;75.10;;;;;;5066410;28;20099;-71
2023/04/08 06:10:54;;;;;;;22.70;9.80;;;5.10;75.20;;;;;;5048218;28;20056;-71
2023/04/08 06:13:24;;;;;;;19.43;9.50;;;5.20;75.40;;;;;;5067970;28;20080;-71
2023/04/08 06:15:51;;;;;;;19.58;9.60;;;5.30;75.40;;;;;;5065263;28;20041;-71
2023/04/08 06:18:19;;;;;;;18.45;9.23;;;5.30;75.70;;;;;;5063666;28;20077;-71
2023/04/08 06:20:47;;;;;;;18.70;9.02;;;5.30;75.70;;;;;;5066585;28;21029;-71
2023/04/08 06:23:14;;;;;;;18.52;9.70;;;5.30;76.00;;;;;;5064139;28;20108;-71
2023/04/08 06:25:42;;;;;;;22.00;10.00;;;5.30;76.00;;;;;;5068535;28;20059;-71
2023/04/08 06:28:09;;;;;;;22.48;10.18;;;5.30;76.20;;;;;;5049668;28;20118;-71
2023/04/08 06:30:36;;;;;;;18.80;9.43;;;5.40;76.20;;;;;;5067181;28;20111;-71
2023/04/08 06:33:03;;;;;;;18.77;9.60;;;5.40;76.40;;;;;;5047817;28;20065;-71
2023/04/08 06:35:31;;;;;;;21.23;9.60;;;5.50;76.80;;;;;;5062502;28;21022;-71
2023/04/08 06:37:58;;;;;;;21.40;9.90;;;5.50;77.00;;;;;;5062871;28;20119;-71
2023/04/08 06:40:25;;;;;;;21.30;9.80;;;5.50;77.10;;;;;;5062976;28;20049;-71
2023/04/08 06:42:53;;;;;;;20.58;10.27;;;5.50;77.20;;;;;;5043183;28;20128;-71
2023/04/08 06:45:29;;;;;;;21.00;9.93;;;5.50;77.50;;;;;;5062092;28;20127;-71
2023/04/08 06:47:56;;;;;;;23.30;10.82;;;5.50;77.60;;;;;;4982609;28;20127;-71
2023/04/08 06:50:23;;;;;;;22.17;10.00;;;5.60;77.60;;;;;;5067144;28;20127;-71
2023/04/08 06:52:52;;;;;;;23.15;10.30;;;5.60;77.80;;;;;;5064512;28;20053;-71
2023/04/08 06:55:19;;;;;;;21.83;10.32;;;5.60;77.70;;;;;;5063524;28;20089;-71
2023/04/08 06:57:46;;;;;;;22.15;10.35;;;5.70;78.10;;;;;;5066136;28;20151;-71
2023/04/08 07:00:14;;;;;;;23.00;10.52;;;5.70;78.00;;;;;;5062423;28;20064;-71
2023/04/08 07:02:41;;;;;;;22.03;9.97;;;5.80;78.30;;;;;;5067655;28;20053;-71
2023/04/08 07:05:08;;;;;;;22.00;10.50;;;5.80;78.60;;;;;;5065090;28;20045;-71
2023/04/08 07:07:36;;;;;;;20.58;9.95;;;5.80;78.70;;;;;;5062115;28;20063;-71
2023/04/08 07:10:05;;;;;;;21.20;9.98;;;5.90;78.80;;;;;;5059864;28;20192;-71
2023/04/08 07:12:32;;;;;;;21.17;9.85;;;5.90;78.80;;;;;;5060445;28;20584;-71
2023/04/08 07:14:59;;;;;;;22.37;10.30;;;5.90;79.00;;;;;;5060646;28;20041;-71
2023/04/08 07:17:26;;;;;;;19.23;9.90;;;6.00;79.00;;;;;;5060545;28;20136;-71
2023/04/08 07:19:57;;;;;;;22.23;9.95;;;6.10;79.20;;;;;;5048743;28;20056;-71
2023/04/08 07:22:24;;;;;;;23.27;10.52;;;6.10;79.20;;;;;;5064550;28;20069;-71
2023/04/08 07:24:51;;;;;;;22.02;10.85;;;6.20;79.30;;;;;;5065965;28;20555;-71
2023/04/08 07:27:20;;;;;;;20.57;10.07;;;6.20;79.50;;;;;;5064344;28;20103;-71
2023/04/08 07:29:52;;;;;;;20.63;10.27;;;6.30;80.00;;;;;;5057850;28;20048;-72
2023/04/08 07:32:19;;;;;;;22.30;10.60;;;6.30;79.70;;;;;;5058908;28;20122;-71
2023/04/08 07:34:46;;;;;;;21.42;10.20;;;6.40;79.70;;;;;;5058102;28;20491;-72
2023/04/08 07:37:13;;;;;;;19.55;9.77;;;6.40;79.70;;;;;;5056739;28;20509;-71
2023/04/08 07:39:40;;;;;;;19.53;9.60;;;6.50;80.10;;;;;;5059370;28;20272;-72
2023/04/08 07:42:07;;;;;;;23.02;11.48;;;6.50;79.80;;;;;;5003390;28;20057;-72
2023/04/08 07:44:37;;;;;;;21.42;9.93;;;6.60;79.80;;;;;;5054879;28;20813;-71
2023/04/08 07:47:04;;;;;;;21.52;10.55;;;6.70;79.80;;;;;;5063548;28;20056;-71
2023/04/08 07:49:31;;;;;;;20.92;10.07;;;6.70;80.00;;;;;;5057223;28;20166;-71
2023/04/08 07:51:58;;;;;;;19.90;9.40;;;6.80;80.00;;;;;;5060638;28;20041;-71
2023/04/08 07:54:25;;;;;;;21.63;10.32;;;6.80;80.10;;;;;;5060529;28;20049;-72
2023/04/08 07:56:53;;;;;;;20.55;10.10;;;6.90;79.80;;;;;;5058618;28;20053;-72
2023/04/08 07:59:20;;;;;;;22.33;10.10;;;6.90;79.90;;;;;;5059471;28;20115;-71
2023/04/08 08:01:48;;;;;;;20.60;9.85;;;7.00;79.80;;;;;;5059313;28;20392;-72
2023/04/08 08:04:15;;;;;;;22.33;10.53;;;7.00;79.80;;;;;;5054714;28;20577;-72
2023/04/08 08:06:42;;;;;;;20.13;10.10;;;7.10;79.70;;;;;;5040846;28;20060;-71
2023/04/08 08:09:10;;;;;;;22.27;10.80;;;7.20;79.70;;;;;;5057106;28;20049;-72
2023/04/08 08:11:37;;;;;;;17.20;8.82;;;7.20;79.70;;;;;;5056294;28;20700;-72
2023/04/08 08:14:04;;;;;;;19.38;10.10;;;7.20;79.60;;;;;;5058797;28;20132;-72
2023/04/08 08:16:32;;;;;;;19.90;9.33;;;7.30;79.60;;;;;;5060928;28;20045;-71
2023/04/08 08:19:01;;;;;;;19.65;10.70;;;7.40;79.60;;;;;;5058243;28;20056;-71
2023/04/08 08:21:28;;;;;;;20.67;10.05;;;7.40;79.70;;;;;;5058221;28;20125;-72
2023/04/08 08:23:56;;;;;;;18.60;10.20;;;7.50;79.80;;;;;;5058486;28;20107;-71
2023/04/08 08:26:23;;;;;;;20.73;10.45;;;7.50;79.70;;;;;;5057755;28;20051;-71
2023/04/08 08:28:50;;;;;;;20.63;10.23;;;7.60;79.60;;;;;;5064211;28;20048;-71
2023/04/08 08:31:17;;;;;;;18.38;10.27;;;7.60;79.60;;;;;;5065745;28;20053;-71
2023/04/08 08:33:45;;;;;;;20.05;10.00;;;7.70;79.50;;;;;;5056808;28;20088;-71
2023/04/08 08:36:14;;;;;;;19.38;10.10;;;7.80;79.40;;;;;;5061303;28;20052;-71
2023/04/08 08:38:41;;;;;;;22.08;10.20;;;7.80;79.40;;;;;;5064302;28;20485;-71
2023/04/08 08:41:08;;;;;;;21.97;10.37;;;7.80;79.20;;;;;;5043692;28;20052;-72
2023/04/08 08:43:35;;;;;;;20.10;10.52;;;8.00;79.20;;;;;;5064277;28;20077;-72
2023/04/08 08:46:03;;;;;;;18.27;10.23;;;8.00;79.20;;;;;;5062437;28;20053;-72
2023/04/08 08:48:31;;;;;;;22.27;10.95;;;8.00;79.10;;;;;;5063941;28;20100;-72
2023/04/08 08:50:58;;;;;;;20.00;10.27;;;8.10;79.10;;;;;;5062290;28;20041;-72
2023/04/08 08:53:29;;;;;;;19.47;10.33;;;8.10;79.10;;;;;;5064315;28;20152;-72
2023/04/08 08:55:56;;;;;;;21.00;10.02;;;8.20;79.20;;;;;;5062889;28;20060;-72
2023/04/08 08:58:26;;;;;;;19.85;10.30;;;8.20;79.20;;;;;;5065918;28;20052;-72
2023/04/08 09:00:53;;;;;;;18.40;9.80;;;8.30;79.30;;;;;;5057881;28;20494;-72
2023/04/08 09:03:22;;;;;;;16.90;8.95;;;8.40;79.10;;;;;;5060906;28;20577;-72
2023/04/08 09:05:50;;;;;;;17.93;9.10;;;8.40;79.00;;;;;;5065356;28;20451;-72
2023/04/08 09:08:30;;;;;;;18.02;8.75;;;8.50;78.90;;;;;;5058160;28;20049;-72
2023/04/08 09:11:12;;;;;;;15.73;8.75;;;8.60;79.10;;;;;;5061098;28;20050;-72
2023/04/08 09:13:39;;;;;;;16.67;9.15;;;8.60;79.10;;;;;;5064507;28;20592;-72
2023/04/08 09:16:09;;;;;;;16.33;9.13;;;8.70;78.90;;;;;;5059044;28;20136;-71
2023/04/08 09:18:37;;;;;;;17.93;9.30;;;8.80;78.70;;;;;;5061810;28;20064;-71
2023/04/08 09:21:05;;;;;;;16.77;8.35;;;8.80;78.60;;;;;;5062043;28;20128;-72
2023/04/08 09:23:43;;;;;;;15.65;9.27;;;8.90;78.50;;;;;;5065641;28;20049;-71
2023/04/08 09:26:11;;;;;;;16.27;9.10;;;9.00;78.40;;;;;;5066200;28;20077;-71
2023/04/08 09:28:40;;;;;;;18.35;9.50;;;9.00;78.20;;;;;;5067532;28;20068;-71
2023/04/08 09:31:21;;;;;;;16.20;8.33;;;9.00;78.20;;;;;;5067926;28;20045;-70
2023/04/08 09:33:49;;;;;;;16.70;9.20;;;9.20;78.10;;;;;;5050999;28;20177;-72
2023/04/08 09:36:17;;;;;;;15.98;8.85;;;9.20;77.90;;;;;;5061581;28;20053;-71
2023/04/08 09:38:46;;;;;;;18.65;9.20;;;9.20;77.80;;;;;;5067469;28;20211;-72
2023/04/08 09:41:15;;;;;;;17.50;9.27;;;9.30;77.80;;;;;;5066820;28;20100;-71
2023/04/08 09:43:47;;;;;;;16.77;9.20;;;9.40;77.70;;;;;;5063778;28;21053;-71
2023/04/08 09:46:17;;;;;;;16.60;9.05;;;9.40;77.60;;;;;;5068030;28;20083;-72
2023/04/08 09:48:51;;;;;;;16.05;9.18;;;9.40;77.50;;;;;;5065329;28;20099;-72
2023/04/08 09:51:22;;;;;;;16.83;9.30;;;9.50;77.40;;;;;;5068854;28;20057;-72
2023/04/08 09:53:59;;;;;;;17.15;8.75;;;9.60;77.30;;;;;;5063394;28;20065;-72
2023/04/08 09:56:30;;;;;;;13.90;8.33;;;9.60;77.20;;;;;;5061745;28;20107;-72
2023/04/08 09:59:00;;;;;;;15.60;8.90;;;9.70;77.10;;;;;;5056134;28;20099;-72
2023/04/08 10:01:37;;;;;;;15.40;8.75;;;9.70;76.80;;;;;;5052608;28;20187;-72
2023/04/08 10:04:08;;;;;;;16.15;8.43;;;9.80;77.00;;;;;;5058186;28;20045;-72
2023/04/08 10:06:36;;;;;;;14.75;7.82;;;9.80;76.90;;;;;;5058854;28;20148;-72
2023/04/08 10:09:06;;;;;;;15.57;8.30;;;9.90;76.80;;;;;;5055515;28;20140;-72
2023/04/08 10:11:35;;;;;;;14.45;7.88;;;10.00;76.70;;;;;;5063608;28;20136;-72
2023/04/08 10:14:02;;;;;;;16.35;9.32;;;10.00;76.70;;;;;;5068245;28;20045;-72
2023/04/08 10:16:29;;;;;;;14.73;9.10;;;10.10;76.30;;;;;;5067778;28;20052;-72
2023/04/08 10:18:57;;;;;;;15.15;8.75;;;10.20;76.40;;;;;;5056498;28;20053;-72
2023/04/08 10:21:38;;;;;;;16.27;9.23;;;10.20;76.20;;;;;;5064675;28;20088;-72
2023/04/08 10:24:10;;;;;;;15.00;8.80;;;10.30;76.20;;;;;;5065653;28;20498;-72
2023/04/08 10:26:40;;;;;;;15.63;8.52;;;10.40;76.30;;;;;;5066214;28;20123;-72
2023/04/08 10:29:32;;;;;;;17.85;9.45;;;10.50;76.20;;;;;;5056297;28;20131;-72
2023/04/08 10:32:01;;;;;;;14.57;8.68;;;10.50;76.20;;;;;;5066700;28;20049;-72
2023/04/08 10:34:30;;;;;;;17.40;9.30;;;10.60;76.40;;;;;;5066835;28;20059;-72
2023/04/08 10:37:02;;;;;;;15.73;9.00;;;10.70;76.40;;;;;;5061435;28;20041;-72
2023/04/08 10:39:31;;;;;;;17.48;9.13;;;10.80;76.00;;;;;;5061047;28;20049;-72
2023/04/08 10:42:02;;;;;;;17.10;9.38;;;10.90;75.90;;;;;;5060093;28;20085;-72
2023/04/08 10:44:30;;;;;;;15.55;9.10;;;10.90;75.90;;;;;;5058515;28;20058;-72
2023/04/08 10:46:57;;;;;;;14.80;8.67;;;11.00;75.90;;;;;;5051423;28;20049;-73
2023/04/08 10:49:33;;;;;;;15.57;8.82;;;11.10;76.00;;;;;;5061200;28;20137;-72
2023/04/08 10:52:00;;;;;;;14.15;8.77;;;11.10;75.50;;;;;;5058771;28;20522;-72
2023/04/08 10:54:27;;;;;;;13.73;8.32;;;11.10;75.50;;;;;;5059245;28;20340;-72
2023/04/08 10:56:56;;;;;;;13.57;7.95;;;11.30;75.70;;;;;;5059004;28;20058;-73
2023/04/08 10:59:32;;;;;;;13.77;8.23;;;11.30;75.50;;;;;;5057837;28;21006;-73
2023/04/08 11:02:01;;;;;;;14.80;8.88;;;11.40;75.40;;;;;;5043172;28;20072;-72
2023/04/08 11:04:28;;;;;;;13.50;8.10;;;11.50;75.10;;;;;;5060010;28;20108;-71
2023/04/08 11:06:55;;;;;;;13.32;8.13;;;11.50;74.80;;;;;;5062345;28;20474;-74
2023/04/08 11:09:22;;;;;;;13.20;7.85;;;11.60;74.40;;;;;;5058189;28;20060;-73
2023/04/08 11:11:49;;;;;;;13.97;8.13;;;11.70;74.30;;;;;;5062137;28;20053;-73
2023/04/08 11:14:20;;;;;;;13.00;8.02;;;11.70;74.20;;;;;;5060379;28;20110;-73
2023/04/08 11:16:48;;;;;;;13.40;7.60;;;11.70;74.00;;;;;;5046391;28;20057;-72
2023/04/08 11:19:15;;;;;;;12.35;7.35;;;11.90;74.00;;;;;;5042952;28;20041;-72
2023/04/08 11:21:42;;;;;;;13.10;7.90;;;11.90;74.30;;;;;;5064666;28;20132;-72
2023/04/08 11:24:13;;;;;;;11.77;6.83;;;11.90;74.10;;;;;;5055239;28;20155;-72
2023/04/08 11:26:41;;;;;;;13.02;7.25;;;12.00;73.90;;;;;;5053822;28;20065;-72
2023/04/08 11:29:13;;;;;;;10.80;6.70;;;12.10;74.00;;;;;;5043280;28;20487;-72
2023/04/08 11:31:42;;;;;;;12.13;6.60;;;12.10;73.60;;;;;;5060119;28;20057;-72
2023/04/08 11:34:09;;;;;;;10.98;6.93;;;12.20;73.00;;;;;;5054308;28;20131;-72
2023/04/08 11:36:36;;;;;;;11.30;7.10;;;12.20;72.50;;;;;;5065110;28;20056;-72
2023/04/08 11:39:08;;;;;;;11.80;6.47;;;12.20;72.40;;;;;;5062198;28;20053;-72
2023/04/08 11:41:39;;;;;;;12.10;6.47;;;12.30;72.40;;;;;;5059292;28;20053;-72
2023/04/08 11:44:06;;;;;;;11.52;6.40;;;12.30;72.50;;;;;;5047959;28;20518;-72
2023/04/08 11:46:34;;;;;;;10.70;6.60;;;12.30;72.30;;;;;;5054166;28;20049;-72
2023/04/08 11:49:05;;;;;;;11.37;6.53;;;12.40;72.40;;;;;;5047797;28;20464;-72
2023/04/08 11:51:33;;;;;;;12.43;6.55;;;12.50;71.90;;;;;;5062095;28;20072;-72
2023/04/08 11:54:01;;;;;;;11.25;6.43;;;12.50;71.70;;;;;;5058362;28;20052;-72
2023/04/08 11:56:32;;;;;;;10.23;6.20;;;12.50;71.50;;;;;;5064875;28;20049;-72
2023/04/08 11:58:59;;;;;;;10.25;6.03;;;12.50;71.30;;;;;;5058063;28;20531;-72
2023/04/08 12:01:27;;;;;;;11.77;6.13;;;12.50;71.20;;;;;;5060104;28;20172;-72
2023/04/08 12:04:05;;;;;;;10.35;5.93;;;12.50;71.30;;;;;;5062543;28;20053;-71
2023/04/08 12:06:32;;;;;;;10.82;5.88;;;12.40;71.20;;;;;;5061191;28;20103;-72
2023/04/08 12:08:59;;;;;;;9.43;5.85;;;12.40;71.20;;;;;;5062793;28;20513;-72
2023/04/08 12:11:26;;;;;;;9.73;5.93;;;12.30;71.20;;;;;;5060812;28;20059;-72
2023/04/08 12:13:53;;;;;;;10.23;6.00;;;12.30;71.30;;;;;;5062449;28;20133;-72
2023/04/08 12:16:20;;;;;;;12.48;6.28;;;12.30;71.20;;;;;;5061317;28;20085;-72
2023/04/08 12:18:49;;;;;;;11.48;6.32;;;12.40;71.60;;;;;;5060633;28;20534;-72
2023/04/08 12:21:17;;;;;;;10.73;6.18;;;12.40;71.40;;;;;;5046531;28;20066;-72
2023/04/08 12:23:44;;;;;;;11.73;6.45;;;12.40;71.10;;;;;;5064438;28;20124;-72
2023/04/08 12:26:12;;;;;;;11.23;6.00;;;12.40;71.00;;;;;;5040269;28;20049;-72
2023/04/08 12:28:39;;;;;;;10.75;6.40;;;12.40;70.90;;;;;;5060794;28;20050;-72
2023/04/08 12:31:06;;;;;;;11.45;5.90;;;12.30;70.90;;;;;;5059932;28;20154;-72
2023/04/08 12:33:33;;;;;;;11.88;6.35;;;12.30;70.80;;;;;;5047024;28;20162;-72
2023/04/08 12:36:00;;;;;;;12.35;6.60;;;12.30;70.80;;;;;;5066267;28;20053;-72
2023/04/08 12:38:29;;;;;;;10.83;6.67;;;12.20;70.90;;;;;;5064384;28;20049;-72
2023/04/08 12:40:56;;;;;;;12.32;6.22;;;12.20;71.00;;;;;;5068042;28;20837;-72
2023/04/08 12:43:23;;;;;;;11.57;6.03;;;12.10;71.40;;;;;;5068202;28;20071;-72
2023/04/08 12:45:51;;;;;;;12.32;7.20;;;12.10;71.50;;;;;;5068507;28;20135;-72
2023/04/08 12:48:18;;;;;;;12.85;6.70;;;12.20;71.40;;;;;;5052403;28;20483;-72
2023/04/08 12:50:45;;;;;;;13.33;7.10;;;12.20;71.30;;;;;;5069815;28;20111;-72